createdAt,value
2019-01-23T00:01:51.955Z,59.98
2019-01-23T00:04:41.667Z,60.06
2019-01-23T00:07:31.762Z,59.96
2019-01-23T00:10:21.160Z,59.93
2019-01-23T00:13:11.252Z,59.88
2019-01-23T00:16:01.402Z,59.93
2019-01-23T00:18:51.395Z,59.92
2019-01-23T00:21:41.456Z,59.90
2019-01-23T00:24:31.019Z,59.89
2019-01-23T00:27:20.712Z,59.84
2019-01-23T00:30:10.802Z,59.86
2019-01-23T00:33:00.779Z,59.97
2019-01-23T00:35:50.573Z,59.95
2019-01-23T00:38:40.232Z,59.94
2019-01-23T00:41:30.511Z,59.90
2019-01-23T00:44:21.611Z,59.96
2019-01-23T00:47:11.800Z,59.95
2019-01-23T00:50:01.270Z,59.96
2019-01-23T00:52:50.920Z,59.97
2019-01-23T00:55:40.978Z,59.99
2019-01-23T00:58:30.768Z,59.99
2019-01-23T01:01:20.557Z,59.96
2019-01-23T01:04:10.514Z,60.00
2019-01-23T01:07:00.894Z,60.07
2019-01-23T01:09:50.836Z,60.01
2019-01-23T01:12:41.013Z,60.00
2019-01-23T01:15:31.141Z,59.97
2019-01-23T01:18:21.130Z,60.02
2019-01-23T01:21:11.232Z,60.02
2019-01-23T01:24:01.972Z,59.94
2019-01-23T01:26:51.987Z,59.98
2019-01-23T01:29:42.017Z,60.02
2019-01-23T01:32:32.126Z,60.09
2019-01-23T01:35:22.469Z,60.13
2019-01-23T01:38:12.630Z,60.05
2019-01-23T01:41:02.179Z,60.05
2019-01-23T01:43:51.834Z,60.12
2019-01-23T01:46:41.689Z,60.18
2019-01-23T01:49:31.638Z,60.09
2019-01-23T01:52:21.643Z,60.13
2019-01-23T01:55:12.322Z,60.11
2019-01-23T01:58:03.418Z,60.16
2019-01-23T02:00:53.572Z,60.13
2019-01-23T02:03:43.402Z,60.17
2019-01-23T02:06:32.842Z,60.16
2019-01-23T02:09:22.756Z,60.20
2019-01-23T02:12:12.703Z,60.26
2019-01-23T02:15:02.434Z,60.17
2019-01-23T02:17:52.611Z,60.03
2019-01-23T02:20:42.599Z,60.06
2019-01-23T02:23:32.769Z,60.20
2019-01-23T02:26:22.218Z,60.16
2019-01-23T02:29:12.292Z,60.04
2019-01-23T02:32:02.660Z,60.10
2019-01-23T02:34:52.733Z,60.19
2019-01-23T02:37:42.186Z,60.22
2019-01-23T02:40:41.266Z,60.28
2019-01-23T02:43:31.253Z,60.63
2019-01-23T02:46:21.043Z,60.78
2019-01-23T02:49:10.829Z,60.64
2019-01-23T02:52:00.886Z,60.57
2019-01-23T02:54:51.051Z,60.54
2019-01-23T02:57:40.904Z,60.37
2019-01-23T03:00:30.605Z,60.34
2019-01-23T03:03:20.425Z,60.29
2019-01-23T03:06:11.865Z,60.25
2019-01-23T03:09:01.659Z,60.19
2019-01-23T03:11:53.437Z,60.15
2019-01-23T03:14:44.115Z,60.20
2019-01-23T03:17:33.861Z,60.20
2019-01-23T03:20:24.167Z,60.22
2019-01-23T03:23:14.583Z,60.29
2019-01-23T03:26:05.212Z,60.36
2019-01-23T03:28:55.234Z,60.36
2019-01-23T03:31:45.470Z,60.25
2019-01-23T03:34:36.675Z,60.29
2019-01-23T03:37:26.451Z,60.39
2019-01-23T03:40:19.354Z,60.44
2019-01-23T03:43:09.169Z,60.50
2019-01-23T03:45:59.315Z,60.49
2019-01-23T03:48:49.042Z,60.49
2019-01-23T03:51:39.197Z,60.38
2019-01-23T03:54:29.094Z,60.37
2019-01-23T03:57:19.713Z,60.36
2019-01-23T04:00:18.451Z,60.36
2019-01-23T04:03:08.447Z,60.33
2019-01-23T04:05:57.962Z,60.28
2019-01-23T04:08:47.944Z,60.25
2019-01-23T04:11:37.960Z,60.26
2019-01-23T04:14:28.203Z,60.22
2019-01-23T04:17:17.908Z,60.24
2019-01-23T04:20:12.636Z,60.23
2019-01-23T04:23:04.067Z,60.27
2019-01-23T04:25:53.902Z,60.31
2019-01-23T04:28:43.698Z,60.25
2019-01-23T04:31:33.899Z,60.14
2019-01-23T04:34:23.703Z,60.25
2019-01-23T04:37:13.789Z,60.34
2019-01-23T04:40:03.814Z,60.33
2019-01-23T04:42:53.979Z,60.31
2019-01-23T04:45:43.865Z,60.35
2019-01-23T04:48:33.906Z,60.35
2019-01-23T04:51:38.878Z,60.41
2019-01-23T04:54:28.876Z,60.44
2019-01-23T04:57:18.401Z,60.52
2019-01-23T05:00:10.317Z,60.57
2019-01-23T05:03:00.111Z,60.58
2019-01-23T05:05:50.145Z,60.59
2019-01-23T05:08:40.344Z,60.55
2019-01-23T05:11:30.624Z,60.59
2019-01-23T05:14:20.344Z,60.72
2019-01-23T05:17:10.115Z,60.70
2019-01-23T05:20:00.130Z,60.77
2019-01-23T05:22:49.716Z,60.86
2019-01-23T05:25:39.778Z,60.95
2019-01-23T05:28:29.861Z,60.98
2019-01-23T05:31:20.003Z,60.94
2019-01-23T05:34:10.517Z,60.96
2019-01-23T05:37:00.567Z,61.03
2019-01-23T05:39:50.861Z,60.96
2019-01-23T05:42:40.645Z,60.97
2019-01-23T05:45:30.173Z,60.98
2019-01-23T05:48:20.182Z,60.94
2019-01-23T05:51:10.277Z,60.89
2019-01-23T05:54:00.108Z,60.93
2019-01-23T05:56:50.292Z,60.99
2019-01-23T05:59:40.437Z,61.01
2019-01-23T06:02:30.216Z,61.01
2019-01-23T06:05:19.711Z,61.06
2019-01-23T06:08:09.455Z,60.92
2019-01-23T06:10:59.063Z,60.85
2019-01-23T06:13:48.758Z,60.74
2019-01-23T06:16:57.785Z,60.67
2019-01-23T06:19:47.431Z,60.58
2019-01-23T06:22:37.870Z,60.21
2019-01-23T06:25:27.163Z,60.58
2019-01-23T06:28:16.859Z,60.46
2019-01-23T06:31:07.079Z,60.50
2019-01-23T06:33:56.776Z,60.47
2019-01-23T06:36:46.498Z,60.48
2019-01-23T06:39:36.091Z,60.49
2019-01-23T06:42:25.730Z,60.45
2019-01-23T06:45:35.029Z,60.45
2019-01-23T06:48:24.730Z,60.43
2019-01-23T06:51:14.736Z,60.54
2019-01-23T06:54:04.547Z,60.54
2019-01-23T06:56:54.734Z,60.47
2019-01-23T06:59:44.435Z,60.40
2019-01-23T07:02:34.601Z,60.42
2019-01-23T07:05:24.867Z,60.42
2019-01-23T07:08:14.499Z,60.38
2019-01-23T07:11:04.324Z,60.38
2019-01-23T07:13:55.000Z,60.38
2019-01-23T07:16:45.099Z,60.37
2019-01-23T07:19:34.679Z,60.38
2019-01-23T07:22:24.390Z,60.42
2019-01-23T07:25:14.640Z,60.60
2019-01-23T07:28:06.211Z,60.72
2019-01-23T07:30:56.125Z,60.83
2019-01-23T07:33:46.269Z,60.84
2019-01-23T07:36:36.295Z,60.97
2019-01-23T07:39:26.539Z,61.02
2019-01-23T07:42:16.493Z,61.02
2019-01-23T07:45:06.876Z,61.07
2019-01-23T07:47:56.692Z,61.10
2019-01-23T07:50:46.735Z,61.17
2019-01-23T07:53:36.275Z,61.26
2019-01-23T07:56:25.913Z,61.29
2019-01-23T07:59:15.666Z,61.36
2019-01-23T08:02:06.012Z,61.57
2019-01-23T08:04:55.812Z,61.59
2019-01-23T08:07:45.936Z,61.54
2019-01-23T08:10:35.594Z,61.51
2019-01-23T08:13:25.443Z,61.48
2019-01-23T08:16:15.510Z,61.35
2019-01-23T08:19:05.492Z,61.49
2019-01-23T08:21:55.326Z,61.34
2019-01-23T08:24:45.300Z,61.29
2019-01-23T08:27:35.319Z,61.22
2019-01-23T08:30:25.457Z,61.19
2019-01-23T08:33:15.350Z,61.08
2019-01-23T08:36:05.335Z,60.80
2019-01-23T08:38:55.140Z,60.44
2019-01-23T08:41:45.012Z,60.34
2019-01-23T08:44:34.977Z,60.04
2019-01-23T08:47:24.733Z,59.63
2019-01-23T08:50:34.047Z,59.62
2019-01-23T08:53:24.100Z,59.51
2019-01-23T08:56:14.127Z,59.21
2019-01-23T08:59:04.551Z,58.94
2019-01-23T09:01:54.528Z,58.50
2019-01-23T09:04:44.259Z,58.62
2019-01-23T09:07:34.420Z,57.85
2019-01-23T09:10:24.499Z,58.20
2019-01-23T09:13:14.190Z,57.99
2019-01-23T09:16:04.045Z,58.26
2019-01-23T09:18:54.394Z,57.72
2019-01-23T09:21:44.452Z,57.57
2019-01-23T09:24:34.147Z,57.93
2019-01-23T09:27:23.908Z,56.14
2019-01-23T09:30:45.259Z,56.73
2019-01-23T09:34:20.596Z,56.31
2019-01-23T09:37:58.518Z,56.42
2019-01-23T09:41:21.399Z,56.58
2019-01-23T09:44:35.115Z,55.05
2019-01-23T09:47:36.172Z,55.51
2019-01-23T09:50:46.316Z,54.88
2019-01-23T09:54:10.800Z,54.36
2019-01-23T09:57:01.772Z,53.00
2019-01-23T09:59:51.264Z,53.85
2019-01-23T10:02:41.405Z,53.48
2019-01-23T10:05:30.962Z,52.75
2019-01-23T10:08:21.221Z,52.38
2019-01-23T10:11:11.465Z,51.47
2019-01-23T10:14:00.883Z,51.51
2019-01-23T10:16:50.718Z,52.28
2019-01-23T10:19:40.582Z,50.85
2019-01-23T10:22:42.133Z,50.94
2019-01-23T10:25:31.951Z,51.69
2019-01-23T10:28:21.919Z,51.48
2019-01-23T10:31:12.110Z,51.64
2019-01-23T10:34:01.945Z,51.38
2019-01-23T10:36:52.122Z,51.46
2019-01-23T10:39:42.143Z,49.61
2019-01-23T10:42:31.710Z,50.80
2019-01-23T10:45:22.223Z,50.05
2019-01-23T10:48:11.958Z,50.32
2019-01-23T10:51:01.838Z,50.01
2019-01-23T10:53:52.108Z,49.50
2019-01-23T10:56:42.004Z,46.99
2019-01-23T10:59:32.069Z,49.28
2019-01-23T11:02:21.830Z,47.58
2019-01-23T11:05:17.362Z,48.70
2019-01-23T11:08:08.662Z,48.16
2019-01-23T11:10:58.659Z,48.39
2019-01-23T11:13:48.765Z,47.94
2019-01-23T11:16:38.690Z,44.96
2019-01-23T11:19:29.038Z,46.41
2019-01-23T11:22:19.397Z,45.72
2019-01-23T11:25:10.740Z,45.36
2019-01-23T11:28:00.298Z,44.15
2019-01-23T11:30:50.334Z,43.32
2019-01-23T11:33:39.877Z,44.29
2019-01-23T11:36:29.577Z,43.77
2019-01-23T11:39:19.978Z,44.28
2019-01-23T11:42:10.271Z,43.90
2019-01-23T11:44:59.916Z,43.74
2019-01-23T11:47:50.518Z,43.88
2019-01-23T11:50:40.391Z,44.12
2019-01-23T11:53:30.244Z,44.37
2019-01-23T11:56:20.328Z,43.38
2019-01-23T11:59:10.607Z,44.51
2019-01-23T12:02:00.717Z,43.33
2019-01-23T12:04:50.563Z,44.05
2019-01-23T12:07:40.517Z,43.60
2019-01-23T12:10:30.720Z,45.32
2019-01-23T12:13:20.247Z,45.72
2019-01-23T12:16:12.847Z,46.31
2019-01-23T12:19:03.116Z,46.15
2019-01-23T12:21:52.619Z,46.18
2019-01-23T12:24:42.674Z,46.67
2019-01-23T12:27:33.019Z,47.01
2019-01-23T12:30:26.738Z,47.22
2019-01-23T12:33:16.626Z,47.19
2019-01-23T12:36:06.225Z,47.31
2019-01-23T12:38:55.725Z,47.94
2019-01-23T12:41:45.594Z,48.37
2019-01-23T12:44:35.924Z,48.37
2019-01-23T12:47:26.915Z,48.65
2019-01-23T12:50:23.290Z,48.67
2019-01-23T12:53:14.559Z,49.03
2019-01-23T12:56:04.446Z,49.36
2019-01-23T12:58:54.295Z,49.07
2019-01-23T13:01:44.656Z,49.09
2019-01-23T13:04:34.921Z,49.45
2019-01-23T13:07:25.845Z,49.73
2019-01-23T13:10:18.805Z,50.06
2019-01-23T13:13:08.864Z,50.09
2019-01-23T13:15:58.931Z,50.35
2019-01-23T13:18:50.300Z,50.57
2019-01-23T13:21:40.437Z,50.69
2019-01-23T13:24:30.534Z,50.53
2019-01-23T13:27:20.020Z,50.66
2019-01-23T13:30:13.247Z,50.81
2019-01-23T13:33:03.179Z,51.79
2019-01-23T13:35:53.386Z,51.80
2019-01-23T13:38:43.114Z,52.25
2019-01-23T13:41:33.087Z,52.82
2019-01-23T13:44:23.316Z,52.68
2019-01-23T13:47:13.043Z,52.59
2019-01-23T13:50:04.536Z,52.69
2019-01-23T13:52:54.721Z,52.78
2019-01-23T13:55:44.358Z,52.87
2019-01-23T13:58:34.417Z,52.89
2019-01-23T14:01:24.854Z,52.84
2019-01-23T14:04:14.581Z,53.14
2019-01-23T14:07:04.710Z,53.08
2019-01-23T14:09:55.302Z,53.21
2019-01-23T14:12:45.476Z,53.46
2019-01-23T14:15:37.574Z,53.43
2019-01-23T14:18:27.837Z,53.62
2019-01-23T14:21:17.680Z,53.66
2019-01-23T14:24:07.630Z,53.73
2019-01-23T14:26:57.619Z,53.81
2019-01-23T14:29:47.432Z,53.77
2019-01-23T14:32:37.268Z,53.86
2019-01-23T14:35:27.583Z,53.98
2019-01-23T14:38:17.753Z,53.99
2019-01-23T14:41:07.464Z,54.21
2019-01-23T14:43:57.113Z,54.22
2019-01-23T14:46:46.905Z,54.56
2019-01-23T14:49:37.454Z,54.56
2019-01-23T14:52:27.417Z,54.79
2019-01-23T14:55:17.376Z,54.93
2019-01-23T14:58:07.545Z,55.05
2019-01-23T15:00:58.465Z,55.91
2019-01-23T15:03:48.901Z,60.02
2019-01-23T15:06:38.594Z,59.70
2019-01-23T15:09:28.428Z,57.69
2019-01-23T15:12:18.628Z,57.02
2019-01-23T15:15:09.269Z,56.36
2019-01-23T15:17:59.997Z,56.50
2019-01-23T15:20:51.272Z,57.44
2019-01-23T15:23:41.401Z,57.20
2019-01-23T15:26:31.333Z,57.26
2019-01-23T15:29:21.680Z,57.45
2019-01-23T15:32:17.264Z,57.57
2019-01-23T15:35:03.651Z,57.47
2019-01-23T15:37:53.396Z,57.64
2019-01-23T15:40:44.444Z,57.77
2019-01-23T15:43:35.176Z,57.84
2019-01-23T15:46:25.305Z,58.39
2019-01-23T15:49:15.352Z,58.36
2019-01-23T15:52:05.894Z,58.72
2019-01-23T15:54:55.963Z,58.79
2019-01-23T15:57:46.063Z,58.81
2019-01-23T16:00:36.463Z,59.08
2019-01-23T16:03:25.911Z,59.23
2019-01-23T16:06:15.919Z,59.37
2019-01-23T16:09:08.131Z,59.30
2019-01-23T16:11:58.609Z,59.08
2019-01-23T16:14:49.001Z,59.49
2019-01-23T16:17:38.885Z,59.59
2019-01-23T16:20:28.938Z,59.94
2019-01-23T16:23:19.241Z,59.65
2019-01-23T16:26:09.436Z,59.90
2019-01-23T16:28:59.566Z,60.16
2019-01-23T16:31:49.679Z,60.48
2019-01-23T16:34:39.751Z,60.37
2019-01-23T16:37:29.479Z,60.96
2019-01-23T16:40:19.464Z,61.00
2019-01-23T16:43:09.950Z,61.08
2019-01-23T16:45:59.996Z,61.06
2019-01-23T16:48:50.446Z,60.83
2019-01-23T16:51:40.485Z,61.25
2019-01-23T16:54:31.525Z,61.20
2019-01-23T16:57:21.525Z,61.25
2019-01-23T17:00:16.017Z,61.19
2019-01-23T17:03:07.469Z,61.02
2019-01-23T17:05:57.551Z,60.94
2019-01-23T17:08:47.772Z,60.85
2019-01-23T17:11:38.277Z,61.07
2019-01-23T17:14:28.967Z,61.08
2019-01-23T17:17:19.314Z,60.89
2019-01-23T17:20:18.220Z,60.76
2019-01-23T17:23:09.158Z,60.75
2019-01-23T17:25:59.580Z,60.73
2019-01-23T17:28:49.799Z,60.58
2019-01-23T17:31:39.867Z,60.51
2019-01-23T17:34:30.140Z,60.54
2019-01-23T17:37:20.742Z,61.03
2019-01-23T17:40:14.644Z,60.89
2019-01-23T17:43:04.993Z,60.67
2019-01-23T17:45:55.364Z,60.65
2019-01-23T17:48:46.392Z,60.56
2019-01-23T17:51:36.761Z,60.62
2019-01-23T17:54:26.901Z,60.67
2019-01-23T17:57:17.415Z,60.82
2019-01-23T18:00:11.082Z,60.84
2019-01-23T18:03:01.456Z,60.77
2019-01-23T18:05:52.241Z,61.16
2019-01-23T18:08:42.687Z,61.05
2019-01-23T18:11:32.986Z,60.93
2019-01-23T18:14:23.167Z,61.08
2019-01-23T18:17:13.750Z,60.90
2019-01-23T18:20:05.785Z,60.88
2019-01-23T18:22:56.301Z,60.76
2019-01-23T18:25:46.486Z,60.71
2019-01-23T18:28:37.317Z,60.66
2019-01-23T18:31:46.962Z,60.75
2019-01-23T18:35:35.595Z,60.68
2019-01-23T18:39:06.018Z,60.60
2019-01-23T18:42:42.939Z,60.63
2019-01-23T18:46:01.487Z,60.80
2019-01-23T18:49:24.743Z,61.14
2019-01-23T18:52:15.985Z,61.82
2019-01-23T18:55:10.192Z,61.44
2019-01-23T18:58:01.026Z,61.35
2019-01-23T19:00:51.657Z,61.47
2019-01-23T19:03:43.370Z,61.29
2019-01-23T19:06:34.174Z,61.19
2019-01-23T19:09:24.543Z,61.57
2019-01-23T19:12:15.416Z,61.22
2019-01-23T19:15:09.149Z,61.29
2019-01-23T19:17:59.894Z,60.84
2019-01-23T19:20:50.538Z,60.78
2019-01-23T19:23:41.310Z,60.57
2019-01-23T19:26:32.187Z,60.73
2019-01-23T19:29:23.056Z,61.10
2019-01-23T19:35:06.421Z,60.49
2019-01-23T19:37:57.084Z,60.40
2019-01-23T19:40:50.106Z,60.25
2019-01-23T19:43:40.877Z,60.24
2019-01-23T19:46:31.396Z,60.05
2019-01-23T19:49:21.742Z,60.11
2019-01-23T19:52:12.756Z,60.09
2019-01-23T19:55:03.033Z,59.99
2019-01-23T19:57:54.079Z,59.95
2019-01-23T20:00:44.234Z,60.45
2019-01-23T20:03:34.799Z,60.08
2019-01-23T20:06:25.355Z,59.88
2019-01-23T20:09:16.311Z,59.80
2019-01-23T20:12:07.576Z,59.72
2019-01-23T20:14:58.451Z,59.88
2019-01-23T20:17:49.699Z,59.84
2019-01-23T20:20:40.544Z,59.68
2019-01-23T20:23:31.234Z,59.55
2019-01-23T20:26:21.300Z,59.44
2019-01-23T20:29:12.213Z,59.56
2019-01-23T20:32:02.698Z,59.45
2019-01-23T20:34:53.037Z,59.15
2019-01-23T20:37:43.707Z,59.47
2019-01-23T20:40:33.347Z,59.57
2019-01-23T20:43:23.684Z,59.65
2019-01-23T20:46:17.261Z,59.62
2019-01-23T20:49:08.861Z,59.48
2019-01-23T20:51:59.623Z,59.58
2019-01-23T20:54:50.434Z,59.37
2019-01-23T20:57:41.332Z,59.39
2019-01-23T21:00:33.830Z,59.56
2019-01-23T21:03:23.918Z,59.37
2019-01-23T21:06:14.760Z,59.19
2019-01-23T21:09:09.024Z,59.25
2019-01-23T21:11:59.891Z,59.41
2019-01-23T21:14:50.403Z,59.38
2019-01-23T21:17:40.689Z,59.39
2019-01-23T21:20:35.419Z,59.17
2019-01-23T21:23:27.084Z,59.31
2019-01-23T21:26:17.411Z,59.38
2019-01-23T21:29:07.940Z,59.21
2019-01-23T21:31:58.576Z,59.07
2019-01-23T21:34:49.404Z,58.92
2019-01-23T21:37:40.266Z,58.90
2019-01-23T21:40:33.302Z,58.67
2019-01-23T21:43:23.722Z,58.72
2019-01-23T21:46:14.464Z,59.09
2019-01-23T21:49:05.204Z,58.95
2019-01-23T21:51:55.336Z,58.97
2019-01-23T21:54:45.244Z,58.82
2019-01-23T21:57:35.100Z,58.74
2019-01-23T22:00:41.949Z,58.73
2019-01-23T22:03:31.981Z,58.55
2019-01-23T22:06:22.380Z,58.74
2019-01-23T22:09:12.452Z,58.80
2019-01-23T22:12:02.458Z,58.88
2019-01-23T22:14:52.271Z,58.92
2019-01-23T22:17:42.546Z,58.80
2019-01-23T22:20:32.474Z,59.06
2019-01-23T22:23:24.027Z,58.89
2019-01-23T22:26:13.774Z,58.97
2019-01-23T22:29:03.504Z,58.91
2019-01-23T22:31:53.476Z,58.80
2019-01-23T22:34:43.211Z,58.81
2019-01-23T22:37:33.307Z,58.91
2019-01-23T22:40:23.690Z,58.88
2019-01-23T22:43:15.124Z,58.92
2019-01-23T22:46:05.921Z,58.86
2019-01-23T22:48:55.467Z,58.85
2019-01-23T22:51:45.330Z,58.55
2019-01-23T22:54:35.386Z,58.94
2019-01-23T22:57:25.393Z,58.95
2019-01-23T23:01:19.324Z,58.96
2019-01-23T23:04:09.435Z,58.94
2019-01-23T23:07:00.567Z,58.96
2019-01-23T23:09:50.720Z,59.03
2019-01-23T23:12:40.752Z,58.98
2019-01-23T23:15:30.809Z,58.93
2019-01-23T23:18:20.667Z,58.95
2019-01-23T23:21:10.533Z,58.97
2019-01-23T23:24:00.353Z,58.97
2019-01-23T23:26:50.325Z,59.00
2019-01-23T23:29:41.728Z,59.04
2019-01-23T23:32:31.882Z,59.05
2019-01-23T23:35:24.799Z,59.09
2019-01-23T23:38:14.723Z,59.07
2019-01-23T23:41:04.965Z,59.11
2019-01-23T23:43:55.178Z,59.14
2019-01-23T23:46:45.623Z,59.17
2019-01-23T23:49:35.351Z,59.13
2019-01-23T23:52:25.770Z,59.13
2019-01-23T23:55:16.481Z,59.23
2019-01-23T23:58:06.400Z,59.09
